Time;durP1;ratioP1;P1;durP2;ratioP2;P2;SDS_P1;SDS_P2;PMS_P1;PMS_P2;Temp;Humidity;BMP_temperature;BMP_pressure;BME280_temperature;BME280_humidity;BME280_pressure;Samples;Min_cycle;Max_cycle;Signal;HPM_P1;HPM_P2
2022/07/24 00:01:44;;;;;;;5.97;3.90;;;;;;;;;;5066334;28;20028;-89
2022/07/24 00:04:09;;;;;;;8.02;4.30;;;;;;;;;;5073391;28;20032;-86
2022/07/24 00:06:35;;;;;;;7.82;3.78;;;;;;;;;;5069242;28;20028;-88
2022/07/24 00:09:00;;;;;;;10.35;4.32;;;;;;;;;;5069686;28;20024;-87
2022/07/24 00:11:26;;;;;;;9.85;3.85;;;;;;;;;;5087086;28;20035;-88
2022/07/24 00:13:52;;;;;;;6.30;3.85;;;;;;;;;;5088611;28;21734;-87
2022/07/24 00:16:17;;;;;;;7.90;3.95;;;;;;;;;;5090790;28;20480;-87
2022/07/24 00:18:43;;;;;;;8.43;3.90;;;;;;;;;;5085835;28;20028;-87
2022/07/24 00:21:08;;;;;;;5.72;3.90;;;;;;;;;;5071716;28;20476;-88
2022/07/24 00:23:34;;;;;;;8.60;4.13;;;;;;;;;;5089952;28;20047;-89
2022/07/24 00:26:00;;;;;;;6.55;3.55;;;;;;;;;;5088206;28;20032;-89
2022/07/24 00:28:26;;;;;;;8.57;3.97;;;;;;;;;;5087265;28;20032;-88
2022/07/24 00:30:51;;;;;;;9.65;4.32;;;;;;;;;;5069061;28;20016;-88
2022/07/24 00:33:17;;;;;;;5.72;3.65;;;;;;;;;;5086414;28;20095;-87
2022/07/24 00:35:43;;;;;;;6.38;3.78;;;;;;;;;;5072645;28;20036;-87
2022/07/24 00:38:09;;;;;;;7.43;4.05;;;;;;;;;;5087455;28;20021;-89
2022/07/24 00:40:35;;;;;;;6.82;3.55;;;;;;;;;;5088847;28;20397;-89
2022/07/24 00:43:02;;;;;;;8.77;4.22;;;;;;;;;;5069395;28;20107;-88
2022/07/24 00:45:27;;;;;;;8.70;3.83;;;;;;;;;;5069657;28;20047;-88
2022/07/24 00:47:53;;;;;;;5.55;4.20;;;;;;;;;;5083533;28;20476;-87
2022/07/24 00:50:18;;;;;;;6.47;4.05;;;;;;;;;;5066984;28;20028;-86
2022/07/24 00:52:44;;;;;;;9.68;3.63;;;;;;;;;;5082520;28;20037;-87
2022/07/24 00:55:11;;;;;;;8.23;4.55;;;;;;;;;;5099483;28;20028;-86
2022/07/24 00:57:36;;;;;;;7.88;3.97;;;;;;;;;;5081494;28;20408;-87
2022/07/24 01:00:06;;;;;;;8.40;3.80;;;;;;;;;;5083222;28;20032;-86
2022/07/24 01:02:34;;;;;;;5.88;3.60;;;;;;;;;;5082105;28;20103;-88
2022/07/24 01:05:00;;;;;;;7.70;4.00;;;;;;;;;;5064116;28;20032;-87
2022/07/24 01:07:26;;;;;;;6.07;3.90;;;;;;;;;;5080685;28;20038;-87
2022/07/24 01:09:52;;;;;;;8.70;4.50;;;;;;;;;;5085160;28;20019;-88
2022/07/24 01:12:18;;;;;;;8.02;4.30;;;;;;;;;;5083107;28;20020;-88
2022/07/24 01:14:44;;;;;;;6.55;3.85;;;;;;;;;;5085866;28;20379;-88
2022/07/24 01:17:10;;;;;;;9.27;3.60;;;;;;;;;;5078547;28;20028;-84
2022/07/24 01:19:36;;;;;;;5.82;4.03;;;;;;;;;;5085815;28;20059;-90
2022/07/24 01:22:02;;;;;;;5.70;4.28;;;;;;;;;;5082803;28;20071;-89
2022/07/24 01:24:27;;;;;;;8.50;4.53;;;;;;;;;;5065964;28;20027;-87
2022/07/24 01:26:53;;;;;;;6.10;4.57;;;;;;;;;;5066087;28;20027;-87
2022/07/24 01:29:18;;;;;;;7.88;4.30;;;;;;;;;;5067505;28;20089;-89
2022/07/24 01:31:44;;;;;;;8.32;4.85;;;;;;;;;;5083244;28;20047;-90
2022/07/24 01:34:09;;;;;;;7.88;4.03;;;;;;;;;;5066817;28;20026;-90
2022/07/24 01:36:35;;;;;;;7.47;4.30;;;;;;;;;;5060750;28;20636;-88
2022/07/24 01:39:00;;;;;;;6.68;4.38;;;;;;;;;;5087947;28;20519;-87
2022/07/24 01:41:26;;;;;;;7.60;4.20;;;;;;;;;;5084568;28;20063;-88
2022/07/24 01:43:51;;;;;;;8.88;4.40;;;;;;;;;;5082916;28;20028;-89
2022/07/24 01:46:16;;;;;;;8.90;4.43;;;;;;;;;;5066557;28;20112;-87
2022/07/24 01:48:43;;;;;;;8.60;4.03;;;;;;;;;;5082251;28;20027;-87
2022/07/24 01:51:09;;;;;;;10.07;5.10;;;;;;;;;;5088292;28;20031;-88
2022/07/24 01:53:34;;;;;;;7.90;4.38;;;;;;;;;;5064227;28;20024;-87
2022/07/24 01:56:00;;;;;;;6.68;4.45;;;;;;;;;;5084919;28;21575;-88
2022/07/24 01:58:25;;;;;;;12.40;4.55;;;;;;;;;;5081798;28;20498;-87
2022/07/24 02:00:51;;;;;;;7.32;3.67;;;;;;;;;;5061955;28;20532;-88
2022/07/24 02:03:17;;;;;;;6.43;3.92;;;;;;;;;;5063581;28;20030;-88
2022/07/24 02:05:43;;;;;;;7.45;4.50;;;;;;;;;;5066879;28;20377;-89
2022/07/24 02:08:08;;;;;;;9.35;4.60;;;;;;;;;;5063831;28;20027;-87
2022/07/24 02:10:34;;;;;;;8.43;5.85;;;;;;;;;;5083929;28;20020;-87
2022/07/24 02:13:00;;;;;;;7.20;5.22;;;;;;;;;;5086696;28;20031;-87
2022/07/24 02:15:25;;;;;;;7.68;5.32;;;;;;;;;;5064035;28;20115;-86
2022/07/24 02:17:53;;;;;;;11.05;6.18;;;;;;;;;;5063698;28;20060;-86
2022/07/24 02:20:19;;;;;;;7.05;4.95;;;;;;;;;;5083050;28;20113;-86
2022/07/24 02:22:45;;;;;;;9.07;4.75;;;;;;;;;;5100132;28;20481;-88
2022/07/24 02:25:11;;;;;;;9.25;4.70;;;;;;;;;;5078200;28;20384;-87
2022/07/24 02:27:37;;;;;;;4.78;3.78;;;;;;;;;;5082736;28;20101;-88
2022/07/24 02:30:09;;;;;;;5.90;4.13;;;;;;;;;;5067876;28;20042;-86
2022/07/24 02:32:34;;;;;;;8.20;4.30;;;;;;;;;;5081989;28;20078;-86
2022/07/24 02:35:00;;;;;;;6.57;3.65;;;;;;;;;;5081610;28;20028;-86
2022/07/24 02:37:25;;;;;;;5.72;3.90;;;;;;;;;;5061309;28;20116;-86
2022/07/24 02:39:50;;;;;;;8.75;4.55;;;;;;;;;;5078025;28;20020;-87
2022/07/24 02:42:16;;;;;;;6.97;4.07;;;;;;;;;;5075214;28;20024;-88
2022/07/24 02:44:41;;;;;;;5.47;3.60;;;;;;;;;;5084658;28;20036;-86
2022/07/24 02:47:07;;;;;;;8.85;4.70;;;;;;;;;;5083367;28;20430;-88
2022/07/24 02:49:32;;;;;;;8.95;4.50;;;;;;;;;;5080658;28;20028;-89
2022/07/24 02:52:02;;;;;;;9.40;4.93;;;;;;;;;;5066035;28;20020;-87
2022/07/24 02:54:28;;;;;;;6.65;4.38;;;;;;;;;;5061358;28;20031;-86
2022/07/24 02:56:53;;;;;;;6.80;4.50;;;;;;;;;;5083176;28;20036;-87
2022/07/24 02:59:19;;;;;;;5.28;3.95;;;;;;;;;;5066578;28;20034;-87
2022/07/24 03:01:44;;;;;;;12.88;4.47;;;;;;;;;;5094211;28;20104;-87
2022/07/24 03:04:10;;;;;;;5.47;4.15;;;;;;;;;;5077373;28;20039;-88
2022/07/24 03:06:36;;;;;;;6.03;4.38;;;;;;;;;;5084067;28;20023;-87
2022/07/24 03:09:02;;;;;;;7.32;4.70;;;;;;;;;;5063013;28;20524;-89
2022/07/24 03:11:28;;;;;;;7.63;4.32;;;;;;;;;;5063393;28;20016;-88
2022/07/24 03:13:53;;;;;;;6.05;4.30;;;;;;;;;;5066609;28;20062;-90
2022/07/24 03:16:19;;;;;;;6.82;4.13;;;;;;;;;;5061012;28;20431;-87
2022/07/24 03:18:48;;;;;;;7.10;4.25;;;;;;;;;;5064100;28;20368;-87
2022/07/24 03:21:15;;;;;;;7.32;4.13;;;;;;;;;;5097378;28;20555;-86
2022/07/24 03:23:40;;;;;;;6.40;3.95;;;;;;;;;;5077950;28;20365;-85
2022/07/24 03:26:06;;;;;;;6.75;3.95;;;;;;;;;;5061836;28;20035;-87
2022/07/24 03:28:31;;;;;;;8.13;4.07;;;;;;;;;;5079069;28;20111;-87
2022/07/24 03:30:57;;;;;;;8.95;4.40;;;;;;;;;;5098006;28;20476;-87
2022/07/24 03:33:22;;;;;;;10.25;4.40;;;;;;;;;;5085483;28;20031;-89
2022/07/24 03:35:48;;;;;;;9.85;4.65;;;;;;;;;;5058621;28;20028;-89
2022/07/24 03:38:14;;;;;;;10.60;4.47;;;;;;;;;;5083559;28;20027;-88
2022/07/24 03:40:39;;;;;;;5.45;3.80;;;;;;;;;;5065673;28;20033;-88
2022/07/24 03:43:05;;;;;;;10.20;4.30;;;;;;;;;;5062814;28;20116;-87
2022/07/24 03:45:30;;;;;;;7.13;4.43;;;;;;;;;;5069145;28;21032;-87
2022/07/24 03:47:55;;;;;;;5.47;3.95;;;;;;;;;;5064573;28;20032;-86
2022/07/24 03:50:21;;;;;;;7.75;4.15;;;;;;;;;;5061894;28;20380;-88
2022/07/24 03:52:46;;;;;;;7.93;4.78;;;;;;;;;;5064290;28;20494;-88
2022/07/24 03:55:12;;;;;;;7.60;4.05;;;;;;;;;;5081071;28;20856;-88
2022/07/24 03:57:37;;;;;;;7.78;3.80;;;;;;;;;;5080010;28;20108;-89
2022/07/24 04:00:04;;;;;;;7.55;4.20;;;;;;;;;;5079083;28;20429;-88
2022/07/24 04:02:30;;;;;;;8.70;4.20;;;;;;;;;;5064505;28;20028;-86
2022/07/24 04:04:55;;;;;;;7.47;4.53;;;;;;;;;;5094463;28;20024;-87
2022/07/24 04:07:21;;;;;;;6.10;4.15;;;;;;;;;;5079891;28;20020;-87
2022/07/24 04:09:46;;;;;;;6.60;4.20;;;;;;;;;;5085286;28;20036;-85
2022/07/24 04:12:11;;;;;;;7.15;4.20;;;;;;;;;;5066201;28;20024;-88
2022/07/24 04:14:37;;;;;;;12.18;5.65;;;;;;;;;;5083661;28;20032;-85
2022/07/24 04:17:02;;;;;;;6.68;3.92;;;;;;;;;;5082746;28;20023;-86
2022/07/24 04:19:28;;;;;;;5.30;3.85;;;;;;;;;;5080737;28;20043;-86
2022/07/24 04:21:53;;;;;;;11.88;4.95;;;;;;;;;;5082914;28;20479;-83
2022/07/24 04:24:19;;;;;;;5.45;3.92;;;;;;;;;;5082815;28;20021;-86
2022/07/24 04:26:44;;;;;;;6.53;4.55;;;;;;;;;;5065054;28;20509;-84
2022/07/24 04:29:10;;;;;;;7.60;4.93;;;;;;;;;;5082277;28;20035;-86
2022/07/24 04:31:35;;;;;;;9.52;4.38;;;;;;;;;;5063473;28;20059;-87
2022/07/24 04:34:01;;;;;;;10.93;4.60;;;;;;;;;;5069996;28;20110;-88
2022/07/24 04:36:27;;;;;;;10.13;4.50;;;;;;;;;;5083893;28;20081;-84
2022/07/24 04:38:52;;;;;;;9.18;4.60;;;;;;;;;;5070831;28;20063;-85
2022/07/24 04:41:18;;;;;;;8.98;4.68;;;;;;;;;;5067637;28;20020;-86
2022/07/24 04:43:44;;;;;;;10.35;4.88;;;;;;;;;;5084756;28;20028;-86
2022/07/24 04:46:09;;;;;;;8.68;4.72;;;;;;;;;;5066074;28;20032;-87
2022/07/24 04:48:35;;;;;;;5.75;4.35;;;;;;;;;;5080456;28;20052;-87
2022/07/24 04:51:00;;;;;;;14.00;5.13;;;;;;;;;;5084381;28;20031;-86
2022/07/24 04:53:26;;;;;;;6.03;4.80;;;;;;;;;;5085521;28;20036;-84
2022/07/24 04:55:51;;;;;;;9.70;5.75;;;;;;;;;;5062801;28;20396;-86
2022/07/24 04:58:17;;;;;;;9.90;5.93;;;;;;;;;;5082403;28;20105;-86
2022/07/24 05:00:42;;;;;;;9.88;6.20;;;;;;;;;;5082879;28;20476;-83
2022/07/24 05:03:07;;;;;;;10.38;6.00;;;;;;;;;;5082980;28;20028;-84
2022/07/24 05:05:33;;;;;;;10.80;6.15;;;;;;;;;;5079681;28;20425;-84
2022/07/24 05:07:58;;;;;;;10.55;6.47;;;;;;;;;;5081072;28;20032;-84
2022/07/24 05:10:24;;;;;;;11.95;5.97;;;;;;;;;;5085572;28;20019;-86
2022/07/24 05:12:49;;;;;;;9.60;6.32;;;;;;;;;;5082319;28;20027;-86
2022/07/24 05:15:14;;;;;;;11.05;6.47;;;;;;;;;;5081982;28;20031;-84
2022/07/24 05:17:40;;;;;;;7.30;5.60;;;;;;;;;;5083279;28;20036;-84
2022/07/24 05:20:06;;;;;;;10.13;6.40;;;;;;;;;;5084022;28;20075;-80
2022/07/24 05:22:33;;;;;;;9.60;6.70;;;;;;;;;;5059180;28;20044;-80
2022/07/24 05:24:58;;;;;;;7.70;5.97;;;;;;;;;;5078979;28;20036;-81
2022/07/24 05:27:24;;;;;;;9.38;6.25;;;;;;;;;;5080825;28;20360;-82
2022/07/24 05:29:49;;;;;;;10.07;6.35;;;;;;;;;;5064240;28;20448;-83
2022/07/24 05:32:15;;;;;;;10.88;6.65;;;;;;;;;;5077554;28;20515;-82
2022/07/24 05:34:40;;;;;;;12.32;7.05;;;;;;;;;;5076276;28;20036;-82
2022/07/24 05:37:06;;;;;;;10.43;7.28;;;;;;;;;;5077584;28;20484;-82
2022/07/24 05:39:31;;;;;;;10.60;7.00;;;;;;;;;;5075090;28;20033;-80
2022/07/24 05:41:57;;;;;;;11.05;6.70;;;;;;;;;;5073349;28;20029;-80
2022/07/24 05:44:22;;;;;;;14.18;7.25;;;;;;;;;;5055251;28;20036;-80
2022/07/24 05:46:48;;;;;;;10.13;7.40;;;;;;;;;;5056784;28;20028;-81
2022/07/24 05:49:13;;;;;;;11.35;6.50;;;;;;;;;;5081438;28;20036;-82
2022/07/24 05:51:38;;;;;;;13.07;7.07;;;;;;;;;;5073779;28;20101;-82
2022/07/24 05:54:04;;;;;;;13.25;7.03;;;;;;;;;;5074147;28;20032;-85
2022/07/24 05:56:30;;;;;;;11.02;7.07;;;;;;;;;;5076247;28;20035;-83
2022/07/24 05:58:56;;;;;;;10.05;6.75;;;;;;;;;;5059937;28;20024;-80
2022/07/24 06:01:22;;;;;;;11.68;6.75;;;;;;;;;;5062979;28;20134;-82
2022/07/24 06:03:47;;;;;;;10.05;7.45;;;;;;;;;;5080569;28;20051;-82
2022/07/24 06:06:13;;;;;;;11.85;7.90;;;;;;;;;;5076997;28;20020;-82
2022/07/24 06:08:38;;;;;;;8.25;6.57;;;;;;;;;;5062592;28;20097;-85
2022/07/24 06:11:04;;;;;;;8.73;7.13;;;;;;;;;;5076977;28;20028;-85
2022/07/24 06:13:29;;;;;;;13.93;7.20;;;;;;;;;;5078938;28;20044;-83
2022/07/24 06:15:55;;;;;;;12.68;6.57;;;;;;;;;;5082054;28;20031;-85
2022/07/24 06:18:20;;;;;;;12.55;6.85;;;;;;;;;;5078106;28;20446;-84
2022/07/24 06:20:46;;;;;;;9.70;6.75;;;;;;;;;;5080589;28;20044;-86
2022/07/24 06:23:11;;;;;;;13.10;7.05;;;;;;;;;;5083767;28;20035;-84
2022/07/24 06:25:37;;;;;;;9.98;7.03;;;;;;;;;;5080652;28;20055;-90
2022/07/24 06:28:02;;;;;;;9.52;7.28;;;;;;;;;;5082982;28;20036;-88
2022/07/24 06:30:28;;;;;;;12.27;6.22;;;;;;;;;;5098206;28;20046;-86
2022/07/24 06:32:59;;;;;;;10.70;7.13;;;;;;;;;;5098034;28;20031;-85
2022/07/24 06:35:26;;;;;;;10.63;7.05;;;;;;;;;;5056923;28;20028;-83
2022/07/24 06:37:52;;;;;;;9.15;6.68;;;;;;;;;;5079993;28;20029;-88
2022/07/24 06:40:19;;;;;;;8.60;6.53;;;;;;;;;;5058399;28;20181;-86
2022/07/24 06:42:45;;;;;;;9.18;6.00;;;;;;;;;;5086924;28;20052;-85
2022/07/24 06:45:11;;;;;;;9.95;6.93;;;;;;;;;;5058812;28;20075;-86
2022/07/24 06:47:36;;;;;;;14.80;7.00;;;;;;;;;;5067010;28;20486;-86
2022/07/24 06:50:02;;;;;;;8.27;6.65;;;;;;;;;;5077556;28;20029;-82
2022/07/24 06:52:28;;;;;;;9.52;6.97;;;;;;;;;;5074623;28;20020;-82
2022/07/24 06:54:53;;;;;;;16.20;7.18;;;;;;;;;;5081006;28;20112;-84
2022/07/24 06:57:18;;;;;;;13.90;7.22;;;;;;;;;;5061188;28;20028;-84
2022/07/24 06:59:44;;;;;;;14.68;6.75;;;;;;;;;;5077344;28;20036;-83
2022/07/24 07:02:10;;;;;;;10.88;6.95;;;;;;;;;;5078568;28;20111;-85
2022/07/24 07:04:35;;;;;;;11.32;6.63;;;;;;;;;;5060645;28;20024;-84
2022/07/24 07:07:02;;;;;;;11.95;6.93;;;;;;;;;;5082264;28;20543;-84
2022/07/24 07:09:27;;;;;;;12.75;6.93;;;;;;;;;;5074364;28;20039;-83
2022/07/24 07:11:52;;;;;;;9.85;6.50;;;;;;;;;;5061068;28;20020;-84
2022/07/24 07:14:18;;;;;;;15.98;6.95;;;;;;;;;;5059026;28;20020;-83
2022/07/24 07:16:44;;;;;;;11.98;7.07;;;;;;;;;;5079632;28;20032;-82
2022/07/24 07:19:09;;;;;;;17.98;10.20;;;;;;;;;;5089645;28;20114;-81
2022/07/24 07:21:36;;;;;;;9.90;6.70;;;;;;;;;;5074943;28;20074;-84
2022/07/24 07:24:04;;;;;;;9.63;6.60;;;;;;;;;;5081956;28;20028;-82
2022/07/24 07:26:46;;;;;;;14.98;8.38;;;;;;;;;;5079575;28;20035;-86
2022/07/24 07:29:14;;;;;;;13.00;7.75;;;;;;;;;;5081392;28;20145;-83
2022/07/24 07:31:39;;;;;;;10.82;6.93;;;;;;;;;;5079434;28;20044;-80
2022/07/24 07:34:05;;;;;;;11.65;6.75;;;;;;;;;;5059478;28;20106;-82
2022/07/24 07:36:34;;;;;;;11.98;7.00;;;;;;;;;;5080550;28;20028;-82
2022/07/24 07:38:59;;;;;;;28.38;20.92;;;;;;;;;;5079881;28;20024;-83
2022/07/24 07:41:25;;;;;;;15.82;11.95;;;;;;;;;;5085854;28;20358;-82
2022/07/24 07:43:51;;;;;;;16.95;10.75;;;;;;;;;;5078561;28;20027;-82
2022/07/24 07:46:17;;;;;;;10.55;6.82;;;;;;;;;;5076359;28;20028;-82
2022/07/24 07:48:42;;;;;;;9.65;7.13;;;;;;;;;;5077712;28;20387;-82
2022/07/24 07:51:08;;;;;;;12.07;7.20;;;;;;;;;;5077908;28;20091;-83
2022/07/24 07:53:34;;;;;;;10.50;6.93;;;;;;;;;;5077851;28;20464;-81
2022/07/24 07:56:01;;;;;;;11.70;7.20;;;;;;;;;;5076462;28;20039;-83
2022/07/24 07:58:27;;;;;;;11.93;7.78;;;;;;;;;;5073039;28;20150;-81
2022/07/24 08:00:53;;;;;;;12.57;7.90;;;;;;;;;;5071767;28;20112;-83
2022/07/24 08:03:19;;;;;;;12.05;7.78;;;;;;;;;;5075996;28;20027;-81
2022/07/24 08:05:44;;;;;;;10.48;8.02;;;;;;;;;;5073206;28;20032;-83
2022/07/24 08:08:10;;;;;;;13.05;7.03;;;;;;;;;;5076950;28;20048;-82
2022/07/24 08:10:35;;;;;;;12.30;7.30;;;;;;;;;;5079033;28;20043;-82
2022/07/24 08:13:01;;;;;;;12.43;7.57;;;;;;;;;;5076220;28;20097;-81
2022/07/24 08:15:26;;;;;;;9.60;7.72;;;;;;;;;;5056447;28;20044;-83
2022/07/24 08:17:53;;;;;;;13.13;7.30;;;;;;;;;;5072669;28;20032;-82
2022/07/24 08:20:19;;;;;;;12.38;7.72;;;;;;;;;;5074398;28;20048;-82
2022/07/24 08:22:45;;;;;;;10.32;8.25;;;;;;;;;;5080489;28;20066;-84
2022/07/24 08:25:11;;;;;;;11.95;8.02;;;;;;;;;;5081061;28;20103;-82
2022/07/24 08:27:37;;;;;;;11.82;7.97;;;;;;;;;;5078655;28;20036;-81
2022/07/24 08:30:05;;;;;;;11.85;7.95;;;;;;;;;;5072739;28;20025;-83
2022/07/24 08:32:30;;;;;;;12.15;8.13;;;;;;;;;;5062331;28;20598;-81
2022/07/24 08:34:55;;;;;;;34.88;29.63;;;;;;;;;;5083897;28;20024;-83
2022/07/24 08:37:21;;;;;;;29.63;21.92;;;;;;;;;;5056386;28;20029;-82
2022/07/24 08:39:47;;;;;;;18.08;14.98;;;;;;;;;;5078984;28;20032;-82
2022/07/24 08:42:12;;;;;;;12.20;8.20;;;;;;;;;;5075701;28;20123;-82
2022/07/24 08:44:39;;;;;;;9.57;7.88;;;;;;;;;;5083642;28;20149;-83
2022/07/24 08:47:08;;;;;;;16.40;8.95;;;;;;;;;;5058963;28;20047;-82
2022/07/24 08:49:35;;;;;;;10.52;7.47;;;;;;;;;;5079104;28;20170;-84
2022/07/24 08:52:04;;;;;;;10.82;8.30;;;;;;;;;;5076352;28;20044;-83
2022/07/24 08:54:32;;;;;;;16.13;8.90;;;;;;;;;;5077088;28;20043;-82
2022/07/24 08:56:58;;;;;;;11.48;7.75;;;;;;;;;;5061368;28;20033;-79
2022/07/24 08:59:24;;;;;;;11.15;7.40;;;;;;;;;;5080869;28;20028;-82
2022/07/24 09:01:50;;;;;;;10.23;7.40;;;;;;;;;;5078420;28;20031;-81
2022/07/24 09:04:44;;;;;;;13.32;7.85;;;;;;;;;;5074058;28;20032;-80
2022/07/24 09:07:12;;;;;;;11.35;7.72;;;;;;;;;;5073216;28;20376;-80
2022/07/24 09:09:38;;;;;;;11.15;7.35;;;;;;;;;;5059888;28;20035;-80
2022/07/24 09:12:06;;;;;;;19.60;17.65;;;;;;;;;;5079305;28;20020;-80
2022/07/24 09:14:38;;;;;;;29.95;25.33;;;;;;;;;;5060811;28;20020;-80
2022/07/24 09:17:07;;;;;;;28.40;24.58;;;;;;;;;;5085344;28;20029;-82
2022/07/24 09:19:55;;;;;;;13.23;8.75;;;;;;;;;;5072440;28;20081;-80
2022/07/24 09:22:35;;;;;;;11.80;8.30;;;;;;;;;;5081868;28;20031;-79
2022/07/24 09:25:14;;;;;;;9.48;7.80;;;;;;;;;;5082992;28;20087;-79
2022/07/24 09:27:47;;;;;;;11.68;7.95;;;;;;;;;;5083391;28;20024;-80
2022/07/24 09:30:24;;;;;;;10.55;8.10;;;;;;;;;;5077695;28;20031;-80
2022/07/24 09:32:53;;;;;;;14.15;9.10;;;;;;;;;;5063165;28;20055;-82
2022/07/24 09:35:22;;;;;;;11.93;8.00;;;;;;;;;;5076239;28;20104;-80
2022/07/24 09:37:54;;;;;;;11.40;7.95;;;;;;;;;;5083127;28;20046;-80
2022/07/24 09:40:20;;;;;;;13.73;8.88;;;;;;;;;;5077184;28;20052;-79
2022/07/24 09:42:45;;;;;;;13.57;7.93;;;;;;;;;;5055484;28;20101;-80
2022/07/24 09:45:11;;;;;;;9.35;7.47;;;;;;;;;;5076090;28;20503;-82
2022/07/24 09:47:38;;;;;;;12.38;5.97;;;;;;;;;;5076219;28;20024;-80
2022/07/24 09:50:12;;;;;;;10.68;6.75;;;;;;;;;;5073555;28;20031;-80
2022/07/24 09:52:40;;;;;;;14.13;9.18;;;;;;;;;;5076178;28;20117;-80
2022/07/24 09:55:20;;;;;;;11.73;7.10;;;;;;;;;;5075603;28;20403;-81
2022/07/24 09:57:45;;;;;;;15.35;11.27;;;;;;;;;;5083207;28;20098;-82
2022/07/24 10:00:11;;;;;;;11.45;6.55;;;;;;;;;;5065674;28;20042;-82
2022/07/24 10:02:37;;;;;;;8.85;4.88;;;;;;;;;;5078300;28;20027;-82
2022/07/24 10:05:03;;;;;;;7.32;4.43;;;;;;;;;;5078043;28;20035;-83
2022/07/24 10:07:30;;;;;;;5.65;4.38;;;;;;;;;;5059525;28;20077;-81
2022/07/24 10:09:59;;;;;;;6.47;4.38;;;;;;;;;;5085015;28;20031;-81
2022/07/24 10:12:28;;;;;;;8.30;4.70;;;;;;;;;;5080997;28;20024;-81
2022/07/24 10:14:59;;;;;;;7.88;4.53;;;;;;;;;;5090105;28;20028;-82
2022/07/24 10:17:50;;;;;;;6.63;5.28;;;;;;;;;;5088221;28;20089;-79
2022/07/24 10:20:33;;;;;;;7.03;4.90;;;;;;;;;;5061661;28;20094;-82
2022/07/24 10:23:03;;;;;;;9.20;5.10;;;;;;;;;;5069644;28;20031;-82
2022/07/24 10:25:38;;;;;;;6.40;4.72;;;;;;;;;;5059725;28;20036;-82
2022/07/24 10:28:08;;;;;;;6.93;4.63;;;;;;;;;;5078270;28;20070;-82
2022/07/24 10:30:33;;;;;;;8.73;7.55;;;;;;;;;;5057579;28;20020;-81
2022/07/24 10:32:59;;;;;;;8.70;5.32;;;;;;;;;;5092838;28;20020;-81
2022/07/24 10:35:30;;;;;;;5.82;4.88;;;;;;;;;;5087145;28;20020;-82
2022/07/24 10:38:26;;;;;;;7.00;4.95;;;;;;;;;;5065951;28;20089;-80
2022/07/24 10:40:55;;;;;;;7.18;5.10;;;;;;;;;;5075691;28;20040;-80
2022/07/24 10:43:21;;;;;;;7.65;5.38;;;;;;;;;;5074680;28;20024;-82
2022/07/24 10:45:53;;;;;;;10.32;5.20;;;;;;;;;;5078679;28;20384;-82
2022/07/24 10:48:22;;;;;;;9.15;5.97;;;;;;;;;;5082237;28;20063;-82
2022/07/24 10:50:56;;;;;;;6.72;5.22;;;;;;;;;;5078724;28;20028;-83
2022/07/24 10:53:23;;;;;;;6.72;5.88;;;;;;;;;;5080838;28;20082;-81
2022/07/24 10:55:48;;;;;;;7.95;5.70;;;;;;;;;;5084228;28;20032;-82
2022/07/24 10:58:15;;;;;;;8.73;5.57;;;;;;;;;;5068859;28;20031;-81
2022/07/24 11:00:46;;;;;;;5.53;5.03;;;;;;;;;;5078659;28;20036;-80
2022/07/24 11:03:21;;;;;;;6.50;5.80;;;;;;;;;;5078228;28;20030;-85
2022/07/24 11:06:10;;;;;;;10.50;6.65;;;;;;;;;;5072277;28;20841;-81
2022/07/24 11:08:49;;;;;;;9.43;6.53;;;;;;;;;;5073114;28;20468;-83
2022/07/24 11:11:15;;;;;;;;;;;;;;;;;;5072802;28;20510;-81
2022/07/24 11:13:43;;;;;;;6.60;5.20;;;;;;;;;;5070007;28;20372;-81
2022/07/24 11:16:16;;;;;;;9.75;5.35;;;;;;;;;;5072392;28;20082;-81
2022/07/24 11:18:42;;;;;;;8.13;5.88;;;;;;;;;;5072407;28;20030;-81
2022/07/24 11:21:08;;;;;;;8.32;5.85;;;;;;;;;;5078546;28;20052;-82
2022/07/24 11:23:34;;;;;;;6.07;5.47;;;;;;;;;;5073670;28;20024;-81
2022/07/24 11:26:31;;;;;;;9.00;5.80;;;;;;;;;;5073229;28;20503;-85
2022/07/24 11:29:18;;;;;;;10.32;5.25;;;;;;;;;;5074711;28;20137;-81
2022/07/24 11:31:46;;;;;;;7.28;5.22;;;;;;;;;;5073586;28;20106;-80
2022/07/24 11:34:12;;;;;;;6.70;5.28;;;;;;;;;;5075471;28;20039;-82
2022/07/24 11:36:43;;;;;;;6.55;5.43;;;;;;;;;;5073540;28;20032;-82
2022/07/24 11:39:09;;;;;;;6.93;5.55;;;;;;;;;;5070262;28;20035;-82
2022/07/24 11:42:14;;;;;;;8.35;5.57;;;;;;;;;;5079129;28;20485;-82
2022/07/24 11:44:45;;;;;;;8.43;5.72;;;;;;;;;;4973784;28;20051;-82
2022/07/24 11:47:14;;;;;;;6.80;5.30;;;;;;;;;;4970018;28;20058;-83
2022/07/24 11:49:40;;;;;;;;;;;;;;;;;;5027238;28;20561;-82
2022/07/24 11:52:06;;;;;;;6.38;5.43;;;;;;;;;;5073688;28;19919;-82
2022/07/24 11:54:31;;;;;;;6.15;5.40;;;;;;;;;;5072821;28;20024;-83
2022/07/24 11:56:57;;;;;;;10.27;6.50;;;;;;;;;;5050423;28;20053;-82
2022/07/24 11:59:28;;;;;;;6.95;5.72;;;;;;;;;;5073969;28;20036;-82
2022/07/24 12:02:05;;;;;;;8.43;5.90;;;;;;;;;;5056057;28;20060;-81
2022/07/24 12:04:30;;;;;;;7.40;6.13;;;;;;;;;;5075754;28;20060;-81
2022/07/24 12:06:56;;;;;;;7.03;5.65;;;;;;;;;;5072442;28;20047;-81
2022/07/24 12:09:22;;;;;;;10.13;6.97;;;;;;;;;;5069447;28;20104;-81
2022/07/24 12:11:47;;;;;;;10.57;6.97;;;;;;;;;;5074608;28;20025;-80
2022/07/24 12:14:18;;;;;;;7.75;6.35;;;;;;;;;;5074908;28;20040;-83
2022/07/24 12:16:44;;;;;;;8.80;6.75;;;;;;;;;;5066994;28;20036;-81
2022/07/24 12:19:19;;;;;;;9.38;6.47;;;;;;;;;;5073851;28;20503;-81
2022/07/24 12:21:47;;;;;;;6.93;5.75;;;;;;;;;;5073170;28;20433;-82
2022/07/24 12:24:12;;;;;;;9.48;6.38;;;;;;;;;;5087106;28;20025;-83
2022/07/24 12:27:04;;;;;;;6.45;5.75;;;;;;;;;;5075214;28;20047;-84
2022/07/24 12:29:30;;;;;;;6.30;5.70;;;;;;;;;;5048240;28;20045;-84
2022/07/24 12:32:17;;;;;;;11.80;6.60;;;;;;;;;;5070675;28;20123;-83
2022/07/24 12:34:49;;;;;;;8.20;6.07;;;;;;;;;;5071962;28;20036;-83
2022/07/24 12:37:22;;;;;;;11.52;5.88;;;;;;;;;;5069327;28;20036;-84
2022/07/24 12:39:47;;;;;;;10.13;5.90;;;;;;;;;;5054117;28;20023;-86
2022/07/24 12:42:13;;;;;;;8.27;5.88;;;;;;;;;;5072867;28;20033;-82
2022/07/24 12:44:42;;;;;;;8.75;6.80;;;;;;;;;;5072840;28;20051;-83
2022/07/24 12:47:08;;;;;;;9.25;6.07;;;;;;;;;;5084500;28;20031;-82
2022/07/24 12:49:48;;;;;;;7.85;6.50;;;;;;;;;;5082266;28;20028;-82
2022/07/24 12:52:23;;;;;;;6.22;5.65;;;;;;;;;;5076437;28;20023;-85
2022/07/24 12:54:50;;;;;;;7.15;6.28;;;;;;;;;;5077619;28;20085;-84
2022/07/24 12:57:15;;;;;;;7.00;6.30;;;;;;;;;;5074394;28;20032;-84
2022/07/24 12:59:42;;;;;;;6.97;6.03;;;;;;;;;;5080326;28;20077;-82
2022/07/24 13:02:19;;;;;;;7.47;5.95;;;;;;;;;;5099072;28;20126;-82
2022/07/24 13:04:59;;;;;;;7.63;6.20;;;;;;;;;;5080320;28;20408;-85
2022/07/24 13:07:25;;;;;;;8.40;5.55;;;;;;;;;;5056584;28;20059;-82
2022/07/24 13:09:52;;;;;;;7.78;5.63;;;;;;;;;;5077645;28;20040;-83
2022/07/24 13:12:19;;;;;;;8.75;6.30;;;;;;;;;;5081069;28;20057;-85
2022/07/24 13:14:44;;;;;;;9.48;6.45;;;;;;;;;;5075808;28;20032;-82
2022/07/24 13:17:18;;;;;;;9.90;6.93;;;;;;;;;;5076633;28;20024;-81
2022/07/24 13:19:48;;;;;;;6.75;6.07;;;;;;;;;;5070341;28;20141;-80
2022/07/24 13:22:15;;;;;;;8.80;6.53;;;;;;;;;;5066295;28;20032;-80
2022/07/24 13:24:41;;;;;;;7.40;6.65;;;;;;;;;;5072739;28;20114;-81
2022/07/24 13:27:08;;;;;;;7.45;6.68;;;;;;;;;;5068123;28;20095;-81
2022/07/24 13:29:35;;;;;;;8.05;6.22;;;;;;;;;;5071099;28;20031;-82
2022/07/24 13:32:01;;;;;;;9.93;6.28;;;;;;;;;;5071977;28;20032;-79
2022/07/24 13:34:28;;;;;;;9.57;7.13;;;;;;;;;;5069816;28;20039;-83
2022/07/24 13:36:54;;;;;;;8.15;6.88;;;;;;;;;;5070296;28;20048;-82
2022/07/24 13:39:20;;;;;;;8.23;6.32;;;;;;;;;;5059026;28;20540;-85
2022/07/24 13:41:46;;;;;;;7.85;6.80;;;;;;;;;;5054340;28;20028;-85
2022/07/24 13:44:11;;;;;;;7.78;6.45;;;;;;;;;;5087269;28;20035;-85
2022/07/24 13:46:37;;;;;;;7.78;6.95;;;;;;;;;;5091983;28;20050;-81
2022/07/24 13:49:04;;;;;;;8.00;7.20;;;;;;;;;;5090296;28;20085;-81
2022/07/24 13:51:30;;;;;;;7.63;6.80;;;;;;;;;;5072288;28;20028;-81
2022/07/24 13:53:55;;;;;;;7.95;6.43;;;;;;;;;;5066361;28;20495;-82
2022/07/24 13:56:23;;;;;;;8.93;7.28;;;;;;;;;;5071911;28;20067;-82
2022/07/24 13:58:49;;;;;;;9.07;6.07;;;;;;;;;;5059803;28;20023;-80
2022/07/24 14:01:17;;;;;;;7.53;6.32;;;;;;;;;;5087745;28;20451;-82
2022/07/24 14:03:42;;;;;;;9.68;6.63;;;;;;;;;;5080781;28;20056;-82
2022/07/24 14:06:09;;;;;;;7.90;6.65;;;;;;;;;;5074811;28;20049;-81
2022/07/24 14:08:36;;;;;;;10.65;6.18;;;;;;;;;;5089043;28;20033;-84
2022/07/24 14:11:01;;;;;;;13.90;6.65;;;;;;;;;;5075602;28;20024;-84
2022/07/24 14:13:27;;;;;;;8.68;6.13;;;;;;;;;;5068155;28;20051;-83
2022/07/24 14:15:53;;;;;;;8.02;6.40;;;;;;;;;;5053421;28;20039;-84
2022/07/24 14:18:18;;;;;;;10.13;7.10;;;;;;;;;;5073828;28;20060;-84
2022/07/24 14:20:44;;;;;;;8.95;6.60;;;;;;;;;;5077070;28;20098;-82
2022/07/24 14:23:09;;;;;;;17.30;7.25;;;;;;;;;;5078306;28;20089;-83
2022/07/24 14:25:35;;;;;;;17.65;6.72;;;;;;;;;;5055325;28;20055;-82
2022/07/24 14:28:00;;;;;;;14.52;7.18;;;;;;;;;;5081022;28;20489;-82
2022/07/24 14:30:26;;;;;;;12.60;6.85;;;;;;;;;;5058942;28;21168;-82
2022/07/24 14:32:54;;;;;;;16.27;7.38;;;;;;;;;;5058470;28;20016;-83
2022/07/24 14:35:19;;;;;;;8.57;6.88;;;;;;;;;;5055934;28;20027;-83
2022/07/24 14:37:45;;;;;;;13.32;7.90;;;;;;;;;;5059644;28;20024;-83
2022/07/24 14:40:10;;;;;;;10.23;8.77;;;;;;;;;;5078042;28;20028;-84